Airfield :
LOGIN :

Register | Disclaimer

   EN    FR    IT 

 










Legend :    VFR   Marginal VFR   IFR   Intensive IFR   Very Intensive IFR
Visi :
Ceiling :
>= 8 km
>= 3000ft
5 to 8 km
1000 to 3000 ft
1500m to 5 km
500 to 1000 ft
800 to 1500m
200 to 500 ft
< 800m
< 200 ft
Symbols :   Thunderstorms  Fog  Heavy snow  Heavy precipitations  Wind > 20 kt
SIGMETs :     Misc.  Thunderstorms  Icing  Turbulence  Mountain Waves  Volcanic Ashes






- Airport Elevation : 242 ft
- IATA code : DUB


EIDW - Dublin

CURRENT METAR :
  • 021000Z 27019KT 9999 BKN012 BKN016 09/06 Q1016 NOSIG

EXPIRED METARs :
  • 020930Z 27019KT 9999 BKN012 BKN014 BKN017 09/06 Q1016 NOSIG
  • 020900Z 27019KT 9999 BKN013 BKN016 08/06 Q1016 NOSIG
  • 020830Z 26015G26KT 9999 BKN014 BKN017 BKN022 08/06 Q1016 NOSIG
  • 020800Z 26015KT 9999 BKN015 BKN018 08/05 Q1017 NOSIG
  • 020730Z 26014KT 9999 FEW014 BKN017 BKN022 08/05 Q1017 NOSIG

TAF TAF EIDW
Valid from the 02 at 06:00 until the 03 at 06:00 UTC


020500Z 0206/0306 28010KT 9999 FEW010 BKN018
TEMPO 0206/0216 -RA BKN010
BECMG 0207/0209 27015G25KT
TEMPO 0210/0214 27018G30KT
BECMG 0214/0216 30016G27KT
BECMG 0218/0220 30010KT



MET'MAP, your aeronautical weather chart ! - Copyright ORBIFLY December 2007 - Disclaimer

ORBIFLY MET'MAP TEAM :

Programming & Development : Alexandra Zaïnal
Concept & original design : Baudouin d'Aumeries
Assistance for programming : Marc-Olivier Méhu
Technical & hardware support : Manuel Goepfert

Contact : metmap@orbifly.com




SOURCES & CREDITS :

   NOAA